Marion, VA (24354)

6:03 AM EDT on June 30, 2015 (GMT -0400)
Smyth Weather | | Change Station
CLOSE
Current Station
Personal Weather Station
Location: Marion, VA
Elevation: 2157 ft
Nearby Weather Stations

Elev 2157 ft 36.81 °N, 81.59 °W | Updated 10 seconds ago

Overcast
Overcast
64.8 °F
Feels Like 64.8 °F
N
0.0
Wind Variable Wind from SW
Gusts 0.0 mph

Today
High -- | Low -- °F
--% Chance of Precip.
Yesterday
High -- | Low -- °F
Precip. -- in
6:10 AM 8:49 PM
Waxing Gibbous, 97% visible
Pressure 30.01 in
Visibility 10.0 miles
Clouds Scattered Clouds 3400 ft
Scattered Clouds 7000 ft
Mostly Cloudy 8500 ft
Dew Point -18 °F
Humidity 3%
Rainfall in
Snow Depth Not available.
UV 0 out of 12
Pollen 3.00 out of 12
Air Quality Not available.
Flu Activity Sporadic
METAR KMKJ 300955Z AUTO 24004KT 10SM SCT034 SCT070 BKN085 18/17 A3001 RMK AO2 LTG DSNT E T01750165

More Conditions Fewer Conditions

Pressure 30.01 in
Visibility 10.0 miles
Clouds Scattered Clouds 3400 ft
Scattered Clouds 7000 ft
Mostly Cloudy 8500 ft
Dew Point -18 °F
Humidity 3%
Rainfall in
Snow Depth Not available.
UV 0 out of 12
Pollen 3.00 out of 12
Air Quality Not available.
Flu Activity Sporadic
METAR KMKJ 300955Z AUTO 24004KT 10SM SCT034 SCT070 BKN085 18/17 A3001 RMK AO2 LTG DSNT E T01750165

More Conditions Fewer Conditions

10-Day Weather Forecast

×

Almanac

Astronomy

Jun. 30, 2015 Rise Set
Actual Time
Civil Twilight
Nautical Twilight
Astronomical Twilight
Moon
Length of Visible Light
Length of Day
Tomorrow will be .
, % of the Moon is Illuminated

Today's Extremes

State Highs State Lows

Community

WunderPhotos

Upload Photos

1,833,986 photos uploaded!

WunderBlogs® & News

Nearby

Air Quality

  Air Quality AQ Index Pollutant
Not available.

Snow Depth

Station Depth Elevation

Earthquake Activity

City Distance Mag. Time & Date
Minimum magnitude displayed is 2.5.

Coastal Water Temperatures

Place Temperature

Stations

Nearby Weather Stations

Station Location Temp. Windchill Dew Point Humidity Wind Precip. Elev Updated Type